createdAt,value
2016-11-25T00:00:53.623Z,5.88
2016-11-25T00:02:02.194Z,5.91
2016-11-25T00:03:11.091Z,5.84
2016-11-25T00:04:20.352Z,5.69
2016-11-25T00:05:29.249Z,5.66
2016-11-25T00:06:37.814Z,5.7
2016-11-25T00:07:46.707Z,5.67
2016-11-25T00:08:55.282Z,5.72
2016-11-25T00:10:04.200Z,5.47
2016-11-25T00:11:13.405Z,5.55
2016-11-25T00:12:22.316Z,5.54
2016-11-25T00:13:31.204Z,5.58
2016-11-25T00:14:40.088Z,5.69
2016-11-25T00:15:49.643Z,5.69
2016-11-25T00:16:58.529Z,5.72
2016-11-25T00:18:07.099Z,5.66
2016-11-25T00:19:15.668Z,5.69
2016-11-25T00:20:24.556Z,5.66
2016-11-25T00:21:33.492Z,5.61
2016-11-25T00:22:42.059Z,5.58
2016-11-25T00:23:50.629Z,5.47
2016-11-25T00:24:59.199Z,5.44
2016-11-25T00:26:08.089Z,5.43
2016-11-25T00:27:17.643Z,5.36
2016-11-25T00:28:26.240Z,5.39
2016-11-25T00:29:34.810Z,5.39
2016-11-25T00:30:43.379Z,5.34
2016-11-25T00:31:52.265Z,5.29
2016-11-25T00:33:00.930Z,5.37
2016-11-25T00:34:09.817Z,5.39
2016-11-25T00:35:18.709Z,5.4
2016-11-25T00:36:27.910Z,5.39
2016-11-25T00:37:36.484Z,5.3
2016-11-25T00:38:45.133Z,5.36
2016-11-25T00:39:53.705Z,5.34
2016-11-25T00:41:02.273Z,5.32
2016-11-25T00:42:10.843Z,5.32
2016-11-25T00:43:20.044Z,5.3
2016-11-25T00:44:29.298Z,5.14
2016-11-25T00:45:37.868Z,5.27
2016-11-25T00:46:46.434Z,5.24
2016-11-25T00:47:55.322Z,5.32
2016-11-25T00:49:03.900Z,5.18
2016-11-25T00:50:13.565Z,5.36
2016-11-25T00:51:22.467Z,5.29
2016-11-25T00:52:31.672Z,5.3
2016-11-25T00:53:41.194Z,5.29
2016-11-25T00:54:50.401Z,5.33
2016-11-25T00:55:59.322Z,5.19
2016-11-25T00:57:07.893Z,5.19
2016-11-25T00:58:16.459Z,5.33
2016-11-25T00:59:25.025Z,5.24
2016-11-25T01:00:33.917Z,5.22
2016-11-25T01:01:42.908Z,5.29
2016-11-25T01:02:51.480Z,5.24
2016-11-25T01:04:00.361Z,5.18
2016-11-25T01:05:08.928Z,5.19
2016-11-25T01:06:17.500Z,5.29
2016-11-25T01:07:27.375Z,5.29
2016-11-25T01:08:35.947Z,5.33
2016-11-25T01:09:44.515Z,5.32
2016-11-25T01:10:53.403Z,5.19
2016-11-25T01:12:02.288Z,5.16
2016-11-25T01:13:11.308Z,5.16
2016-11-25T01:14:20.511Z,5.15
2016-11-25T01:15:29.403Z,5.14
2016-11-25T01:16:37.977Z,5.18
2016-11-25T01:17:46.551Z,5.21
2016-11-25T01:18:55.221Z,5.18
2016-11-25T01:20:03.790Z,5.16
2016-11-25T01:21:12.683Z,5.32
2016-11-25T01:22:21.256Z,5.3
2016-11-25T01:23:30.458Z,5.25
2016-11-25T01:24:39.720Z,5.33
2016-11-25T01:25:48.608Z,5.22
2016-11-25T01:26:57.186Z,5.18
2016-11-25T01:28:05.756Z,5.24
2016-11-25T01:29:14.326Z,5.19
2016-11-25T01:30:23.262Z,5.33
2016-11-25T01:31:31.830Z,5.21
2016-11-25T01:32:40.716Z,5.39
2016-11-25T01:33:49.285Z,5.24
2016-11-25T01:34:58.169Z,5.37
2016-11-25T01:36:07.111Z,5.16
2016-11-25T01:37:15.682Z,5.3
2016-11-25T01:38:24.916Z,5.29
2016-11-25T01:39:33.482Z,5.3
2016-11-25T01:40:42.376Z,5.15
2016-11-25T01:41:51.367Z,5.19
2016-11-25T01:43:00.255Z,5.18
2016-11-25T01:44:08.825Z,5.25
2016-11-25T01:45:17.391Z,5.24
2016-11-25T01:46:26.280Z,5.34
2016-11-25T01:47:35.943Z,5.22
2016-11-25T01:48:44.516Z,5.24
2016-11-25T01:49:53.404Z,5.06
2016-11-25T01:51:01.972Z,5.27
2016-11-25T01:52:10.858Z,5.29
2016-11-25T01:53:20.113Z,5.27
2016-11-25T01:54:29.320Z,5.29
2016-11-25T01:55:37.886Z,5.22
2016-11-25T01:56:46.452Z,5.32
2016-11-25T01:57:55.342Z,5.21
2016-11-25T01:59:03.962Z,5.27
2016-11-25T02:00:12.850Z,5.32
2016-11-25T02:01:21.423Z,5.15
2016-11-25T02:02:30.311Z,5.25
2016-11-25T02:03:38.886Z,5.21
2016-11-25T02:04:47.824Z,5.32
2016-11-25T02:05:56.395Z,5.33
2016-11-25T02:07:04.964Z,5.32
2016-11-25T02:08:14.172Z,5.15
2016-11-25T02:09:22.745Z,5.21
2016-11-25T02:10:31.735Z,5.19
2016-11-25T02:11:40.646Z,5.3
2016-11-25T02:12:49.530Z,5.15
2016-11-25T02:13:58.103Z,5.22
2016-11-25T02:15:07.026Z,5.18
2016-11-25T02:16:16.580Z,5.15
2016-11-25T02:17:25.784Z,5.01
2016-11-25T02:18:34.363Z,5.19
2016-11-25T02:19:43.565Z,5.12
2016-11-25T02:20:52.133Z,5.12
2016-11-25T02:22:01.475Z,5.27
2016-11-25T02:23:10.042Z,5.21
2016-11-25T02:24:18.941Z,5.25
2016-11-25T02:25:27.510Z,5.21
2016-11-25T02:26:36.403Z,5.24
2016-11-25T02:27:45.075Z,5.21
2016-11-25T02:28:54.283Z,5.15
2016-11-25T02:30:03.169Z,5.29
2016-11-25T02:31:11.741Z,5.32
2016-11-25T02:32:20.309Z,5.32
2016-11-25T02:33:29.548Z,5.36
2016-11-25T02:34:38.116Z,5.18
2016-11-25T02:35:47.006Z,5.33
2016-11-25T02:36:55.891Z,5.29
2016-11-25T02:38:04.781Z,5.27
2016-11-25T02:39:13.703Z,5.15
2016-11-25T02:40:22.587Z,5.3
2016-11-25T02:41:31.474Z,5.29
2016-11-25T02:42:40.048Z,5.18
2016-11-25T02:43:49.256Z,5.25
2016-11-25T02:44:58.275Z,5.21
2016-11-25T02:46:06.875Z,5.14
2016-11-25T02:47:15.442Z,5.16
2016-11-25T02:48:24.332Z,5.15
2016-11-25T02:49:32.899Z,5.16
2016-11-25T02:50:41.515Z,5.15
2016-11-25T02:51:50.398Z,5.33
2016-11-25T02:52:58.969Z,5.29
2016-11-25T02:54:07.856Z,5.16
2016-11-25T02:55:16.428Z,5.27
2016-11-25T02:56:25.358Z,5.34
2016-11-25T02:57:34.598Z,5.3
2016-11-25T02:58:43.499Z,5.25
2016-11-25T02:59:52.107Z,5.4
2016-11-25T03:01:00.707Z,5.4
2016-11-25T03:02:09.333Z,5.33
2016-11-25T03:03:18.878Z,5.61
2016-11-25T03:04:28.120Z,5.88
2016-11-25T03:05:37.396Z,5.9
2016-11-25T03:06:46.297Z,5.84
2016-11-25T03:07:55.822Z,5.43
2016-11-25T03:09:04.724Z,5.32
2016-11-25T03:10:13.305Z,5.16
2016-11-25T03:11:21.893Z,5.16
2016-11-25T03:12:30.805Z,5.19
2016-11-25T03:13:39.735Z,5.22
2016-11-25T03:14:48.317Z,5.24
2016-11-25T03:15:57.542Z,5.33
2016-11-25T03:17:06.428Z,5.37
2016-11-25T03:18:15.004Z,5.34
2016-11-25T03:19:23.636Z,5.32
2016-11-25T03:20:32.213Z,5.29
2016-11-25T03:21:41.427Z,5.24
2016-11-25T03:22:50.322Z,5.3
2016-11-25T03:23:59.231Z,5.43
2016-11-25T03:25:08.175Z,5.37
2016-11-25T03:26:17.087Z,5.33
2016-11-25T03:27:25.994Z,5.33
2016-11-25T03:28:34.895Z,5.27
2016-11-25T03:29:43.808Z,5.19
2016-11-25T03:30:52.811Z,5.06
2016-11-25T03:32:01.698Z,4.89
2016-11-25T03:33:10.280Z,5.16
2016-11-25T03:34:18.869Z,5.29
2016-11-25T03:35:27.797Z,5.32
2016-11-25T03:36:36.791Z,5.22
2016-11-25T03:37:45.709Z,5.32
2016-11-25T03:38:54.279Z,5.14
2016-11-25T03:40:02.865Z,4.98
2016-11-25T03:41:11.796Z,5.22
2016-11-25T03:42:20.763Z,5.19
2016-11-25T03:43:29.352Z,5.41
2016-11-25T03:44:38.255Z,5.43
2016-11-25T03:45:47.511Z,5.58
2016-11-25T03:46:56.430Z,5.65
2016-11-25T03:48:05.630Z,5.39
2016-11-25T03:49:14.543Z,5.36
2016-11-25T03:50:23.129Z,5.18
2016-11-25T03:51:31.693Z,5
2016-11-25T03:52:40.922Z,4.94
2016-11-25T03:53:49.604Z,4.93
2016-11-25T03:54:58.189Z,4.67
2016-11-25T03:56:07.421Z,4.77
2016-11-25T03:57:16.041Z,4.66
2016-11-25T03:58:24.611Z,4.66
2016-11-25T03:59:33.609Z,4.74
2016-11-25T04:00:42.838Z,4.63
2016-11-25T04:01:51.765Z,4.56
2016-11-25T04:03:00.671Z,4.51
2016-11-25T04:04:09.564Z,4.57
2016-11-25T04:05:18.438Z,4.51
2016-11-25T04:06:27.671Z,4.61
2016-11-25T04:07:36.586Z,4.64
2016-11-25T04:08:45.471Z,4.63
2016-11-25T04:09:54.386Z,4.59
2016-11-25T04:11:03.702Z,4.64
2016-11-25T04:12:12.615Z,4.64
2016-11-25T04:13:21.189Z,4.72
2016-11-25T04:14:30.084Z,4.88
2016-11-25T04:15:38.985Z,4.91
2016-11-25T04:16:47.969Z,4.91
2016-11-25T04:17:56.570Z,4.82
2016-11-25T04:19:05.469Z,4.96
2016-11-25T04:20:14.365Z,4.93
2016-11-25T04:21:23.278Z,4.94
2016-11-25T04:22:32.246Z,4.89
2016-11-25T04:23:40.815Z,4.89
2016-11-25T04:24:49.732Z,5.01
2016-11-25T04:25:58.308Z,4.97
2016-11-25T04:27:06.904Z,4.94
2016-11-25T04:28:15.549Z,4.94
2016-11-25T04:29:24.450Z,4.94
2016-11-25T04:30:33.674Z,4.77
2016-11-25T04:31:42.257Z,4.86
2016-11-25T04:32:50.854Z,5.03
2016-11-25T04:34:00.120Z,5
2016-11-25T04:35:09.015Z,4.96
2016-11-25T04:36:17.586Z,5.07
2016-11-25T04:37:26.178Z,5.04
2016-11-25T04:38:34.762Z,5.06
2016-11-25T04:39:43.693Z,5
2016-11-25T04:40:52.283Z,5.11
2016-11-25T04:42:00.874Z,4.93
2016-11-25T04:43:09.459Z,4.83
2016-11-25T04:44:18.031Z,4.89
2016-11-25T04:45:27.279Z,4.82
2016-11-25T04:46:36.184Z,4.86
2016-11-25T04:47:45.087Z,4.97
2016-11-25T04:48:54.310Z,4.96
2016-11-25T04:50:02.907Z,4.93
2016-11-25T04:51:11.839Z,4.86
2016-11-25T04:52:20.426Z,4.6
2016-11-25T04:53:29.018Z,4.72
2016-11-25T04:54:38.241Z,4.77
2016-11-25T04:55:47.151Z,4.88
2016-11-25T04:56:55.779Z,4.89
2016-11-25T04:58:04.347Z,4.69
2016-11-25T04:59:13.256Z,4.78
2016-11-25T05:00:21.845Z,4.74
2016-11-25T05:01:30.758Z,4.72
2016-11-25T05:02:39.707Z,4.69
2016-11-25T05:03:48.622Z,4.71
2016-11-25T05:04:57.836Z,4.69
2016-11-25T05:06:06.746Z,4.66
2016-11-25T05:07:15.331Z,4.86
2016-11-25T05:08:24.565Z,4.88
2016-11-25T05:09:33.467Z,4.74
2016-11-25T05:10:42.053Z,4.66
2016-11-25T05:11:50.642Z,4.69
2016-11-25T05:12:59.253Z,4.66
2016-11-25T05:14:07.882Z,4.75
2016-11-25T05:15:17.440Z,4.63
2016-11-25T05:16:26.031Z,4.64
2016-11-25T05:17:35.276Z,4.63
2016-11-25T05:18:43.848Z,4.69
2016-11-25T05:19:53.217Z,4.82
2016-11-25T05:21:02.126Z,4.86
2016-11-25T05:22:10.745Z,4.98
2016-11-25T05:23:19.647Z,4.86
2016-11-25T05:24:28.542Z,4.85
2016-11-25T05:25:38.078Z,4.88
2016-11-25T05:26:47.309Z,4.93
2016-11-25T05:27:55.903Z,5
2016-11-25T05:29:05.107Z,4.86
2016-11-25T05:30:13.681Z,4.74
2016-11-25T05:31:22.927Z,4.78
2016-11-25T05:32:32.152Z,4.91
2016-11-25T05:33:41.063Z,4.91
2016-11-25T05:34:49.661Z,4.94
2016-11-25T05:35:58.253Z,5.12
2016-11-25T05:37:07.195Z,4.82
2016-11-25T05:38:16.445Z,4.64
2016-11-25T05:39:25.655Z,4.94
2016-11-25T05:40:34.900Z,4.96
2016-11-25T05:41:43.502Z,5.06
2016-11-25T05:42:52.146Z,5.16
2016-11-25T05:44:01.068Z,5.06
2016-11-25T05:45:10.006Z,5.03
2016-11-25T05:46:19.561Z,5.06
2016-11-25T05:47:28.474Z,5.12
2016-11-25T05:48:37.464Z,5.04
2016-11-25T05:49:46.373Z,5.09
2016-11-25T05:50:55.281Z,4.97
2016-11-25T05:52:04.193Z,4.88
2016-11-25T05:53:13.128Z,4.82
2016-11-25T05:54:22.145Z,4.85
2016-11-25T05:55:31.044Z,4.93
2016-11-25T05:56:39.626Z,4.86
2016-11-25T05:57:48.560Z,4.88
2016-11-25T05:58:57.463Z,4.91
2016-11-25T06:00:06.497Z,4.97
2016-11-25T06:01:15.413Z,5.12
2016-11-25T06:02:24.002Z,5.15
2016-11-25T06:03:32.918Z,5
2016-11-25T06:04:41.826Z,5.06
2016-11-25T06:05:50.806Z,4.83
2016-11-25T06:06:59.371Z,5.07
2016-11-25T06:08:08.596Z,4.91
2016-11-25T06:09:17.526Z,5.09
2016-11-25T06:10:27.374Z,4.97
2016-11-25T06:11:36.641Z,4.82
2016-11-25T06:12:45.230Z,4.97
2016-11-25T06:13:53.826Z,4.94
2016-11-25T06:15:02.406Z,5.06
2016-11-25T06:16:11.652Z,5.18
2016-11-25T06:17:20.906Z,5
2016-11-25T06:18:29.819Z,5.01
2016-11-25T06:19:39.065Z,5.19
2016-11-25T06:20:47.691Z,5.19
2016-11-25T06:21:56.575Z,5.29
2016-11-25T06:23:05.215Z,5.24
2016-11-25T06:24:13.811Z,5.04
2016-11-25T06:25:22.396Z,5.11
2016-11-25T06:26:31.306Z,4.89
2016-11-25T06:27:40.188Z,5.12
2016-11-25T06:28:50.075Z,5.09
2016-11-25T06:29:59.044Z,4.96
2016-11-25T06:31:07.643Z,4.94
2016-11-25T06:32:16.227Z,4.91
2016-11-25T06:33:25.131Z,4.96
2016-11-25T06:34:34.155Z,5
2016-11-25T06:35:43.044Z,4.98
2016-11-25T06:36:52.274Z,4.83
2016-11-25T06:38:01.498Z,4.93
2016-11-25T06:39:10.092Z,5.03
2016-11-25T06:40:19.019Z,5.04
2016-11-25T06:41:27.604Z,5.06
2016-11-25T06:42:36.511Z,5.24
2016-11-25T06:43:45.407Z,5.32
2016-11-25T06:44:53.976Z,5.24
2016-11-25T06:46:03.329Z,5.14
2016-11-25T06:47:12.221Z,4.66
2016-11-25T06:48:20.817Z,4.56
2016-11-25T06:49:29.725Z,4.45
2016-11-25T06:50:38.629Z,4.26
2016-11-25T06:51:47.516Z,4.49
2016-11-25T06:52:56.726Z,4.64
2016-11-25T06:54:05.960Z,4.79
2016-11-25T06:55:15.190Z,4.56
2016-11-25T06:56:23.775Z,4.78
2016-11-25T06:57:33.037Z,4.61
2016-11-25T06:58:41.938Z,4.64
2016-11-25T06:59:50.836Z,4.38
2016-11-25T07:01:00.038Z,4.34
2016-11-25T07:02:08.947Z,4.49
2016-11-25T07:03:17.992Z,4.6
2016-11-25T07:04:26.561Z,4.08
2016-11-25T07:05:35.456Z,4.2
2016-11-25T07:06:44.048Z,4.54
2016-11-25T07:07:52.630Z,4.45
2016-11-25T07:09:01.521Z,4.31
2016-11-25T07:10:10.113Z,4.26
2016-11-25T07:11:19.021Z,4.34
2016-11-25T07:12:27.935Z,4.36
2016-11-25T07:13:37.154Z,4.31
2016-11-25T07:14:46.111Z,4.18
2016-11-25T07:15:54.708Z,4.28
2016-11-25T07:17:03.297Z,4.43
2016-11-25T07:18:11.886Z,4.34
2016-11-25T07:19:20.485Z,4.27
2016-11-25T07:20:29.776Z,4.13
2016-11-25T07:21:48.015Z,4.3
2016-11-25T07:22:56.922Z,4.26
2016-11-25T07:24:05.486Z,4.16
2016-11-25T07:25:14.404Z,4.36
2016-11-25T07:26:23.345Z,4.23
2016-11-25T07:27:31.931Z,3.81
2016-11-25T07:28:40.515Z,3.99
2016-11-25T07:29:49.440Z,4.16
2016-11-25T07:30:58.343Z,4.26
2016-11-25T07:32:07.046Z,4.16
2016-11-25T07:33:15.950Z,3.98
2016-11-25T07:34:24.533Z,4.08
2016-11-25T07:35:33.432Z,4.18
2016-11-25T07:36:42.027Z,4.2
2016-11-25T07:37:51.022Z,4.1
2016-11-25T07:38:59.598Z,3.85
2016-11-25T07:40:08.490Z,4.13
2016-11-25T07:41:17.404Z,3.81
2016-11-25T07:42:26.314Z,4.18
2016-11-25T07:43:34.940Z,4.26
2016-11-25T07:44:43.521Z,4.43
2016-11-25T07:45:53.090Z,4.72
2016-11-25T07:47:02.015Z,4.83
2016-11-25T07:48:10.614Z,4.82
2016-11-25T07:49:20.271Z,4.96
2016-11-25T07:50:28.854Z,4.88
2016-11-25T07:51:38.076Z,5.22
2016-11-25T07:52:47.347Z,4.59
2016-11-25T07:53:55.940Z,4.28
2016-11-25T07:55:04.904Z,4.28
2016-11-25T07:56:14.140Z,4.23
2016-11-25T07:57:22.724Z,3.85
2016-11-25T07:58:31.294Z,3.85
2016-11-25T07:59:39.878Z,3.9
2016-11-25T08:00:48.554Z,4.1
2016-11-25T08:01:57.442Z,4.31
2016-11-25T08:03:06.670Z,4.26
2016-11-25T08:04:15.603Z,3.96
2016-11-25T08:05:24.522Z,4.3
2016-11-25T08:06:33.215Z,4.2
2016-11-25T08:07:41.795Z,4.12
2016-11-25T08:08:50.712Z,4.24
2016-11-25T08:09:59.626Z,4.2
2016-11-25T08:11:08.555Z,4.35
2016-11-25T08:12:17.201Z,4.23
2016-11-25T08:13:25.784Z,4.17
2016-11-25T08:14:35.001Z,3.98
2016-11-25T08:15:43.587Z,3.81
2016-11-25T08:16:52.832Z,3.84
2016-11-25T08:18:01.526Z,3.88
2016-11-25T08:19:10.772Z,3.56
2016-11-25T08:20:19.672Z,3.44
2016-11-25T08:21:28.904Z,3.29
2016-11-25T08:22:38.131Z,3.26
2016-11-25T08:23:46.778Z,3.35
2016-11-25T08:24:55.359Z,3.25
2016-11-25T08:26:04.241Z,3.33
2016-11-25T08:27:12.818Z,3.44
2016-11-25T08:28:21.402Z,3.49
2016-11-25T08:29:30.658Z,3.46
2016-11-25T08:30:39.243Z,3.56
2016-11-25T08:31:48.471Z,3.51
2016-11-25T08:32:57.374Z,3.48
2016-11-25T08:34:05.954Z,3.54
2016-11-25T08:35:15.219Z,3.49
2016-11-25T08:36:23.794Z,3.73
2016-11-25T08:37:32.377Z,3.56
2016-11-25T08:38:40.957Z,3.73
2016-11-25T08:39:49.566Z,3.56
2016-11-25T08:40:58.520Z,3.78
2016-11-25T08:42:07.431Z,3.42
2016-11-25T08:43:16.027Z,3.55
2016-11-25T08:44:25.255Z,3.69
2016-11-25T08:45:34.164Z,3.55
2016-11-25T08:46:42.816Z,3.6
2016-11-25T08:47:52.373Z,3.42
2016-11-25T08:49:00.991Z,3.63
2016-11-25T08:50:09.584Z,3.63
2016-11-25T08:51:18.489Z,3.92
2016-11-25T08:52:27.753Z,3.98
2016-11-25T08:53:36.667Z,4.02
2016-11-25T08:54:45.606Z,4.03
2016-11-25T08:55:58.332Z,3.88
2016-11-25T08:57:07.248Z,4.12
2016-11-25T08:58:15.938Z,3.87
2016-11-25T08:59:24.522Z,3.84
2016-11-25T09:00:33.758Z,4.13
2016-11-25T09:01:42.654Z,4.26
2016-11-25T09:02:51.569Z,4.03
2016-11-25T09:04:00.887Z,3.84
2016-11-25T09:05:09.483Z,3.98
2016-11-25T09:06:18.731Z,3.91
2016-11-25T09:07:27.966Z,4.03
2016-11-25T09:08:36.574Z,3.98
2016-11-25T09:09:45.846Z,3.96
2016-11-25T09:10:54.757Z,4.3
2016-11-25T09:12:03.673Z,3.85
2016-11-25T09:13:12.893Z,3.85
2016-11-25T09:14:21.804Z,3.99
2016-11-25T09:15:30.757Z,4.09
2016-11-25T09:16:39.697Z,4.08
2016-11-25T09:17:48.606Z,4.17
2016-11-25T09:18:57.188Z,4.02
2016-11-25T09:20:06.741Z,4.16
2016-11-25T09:21:15.715Z,4.09
2016-11-25T09:22:24.314Z,4.28
2016-11-25T09:23:32.888Z,4.31
2016-11-25T09:24:41.808Z,4.26
2016-11-25T09:25:50.730Z,4.56
2016-11-25T09:26:59.721Z,4.16
2016-11-25T09:28:08.933Z,4.09
2016-11-25T09:29:18.161Z,4.18
2016-11-25T09:30:26.776Z,4.27
2016-11-25T09:31:35.679Z,4.12
2016-11-25T09:32:44.754Z,4.1
2016-11-25T09:33:53.330Z,4.46
2016-11-25T09:35:01.927Z,4.34
2016-11-25T09:36:11.206Z,4.46
2016-11-25T09:37:19.791Z,4.6
2016-11-25T09:38:28.792Z,4.46
2016-11-25T09:39:37.715Z,4.54
2016-11-25T09:40:46.956Z,4.17
2016-11-25T09:41:55.540Z,4.12
2016-11-25T09:43:04.450Z,4.3
2016-11-25T09:44:13.713Z,4.56
2016-11-25T09:45:22.290Z,4.39
2016-11-25T09:46:31.837Z,4.34
2016-11-25T09:47:41.062Z,4.31
2016-11-25T09:48:49.646Z,4.61
2016-11-25T09:49:58.598Z,4.83
2016-11-25T09:51:07.213Z,4.63
2016-11-25T09:52:16.448Z,4.91
2016-11-25T09:53:25.343Z,5.18
2016-11-25T09:54:34.276Z,5.21
2016-11-25T09:55:42.899Z,4.94
2016-11-25T09:56:51.492Z,4.6
2016-11-25T09:58:00.079Z,4.51
2016-11-25T09:59:09.000Z,4.82
2016-11-25T10:00:18.222Z,4.6
2016-11-25T10:01:27.853Z,4.64
2016-11-25T10:02:36.758Z,4.69
2016-11-25T10:03:45.675Z,4.93
2016-11-25T10:04:54.280Z,4.49
2016-11-25T10:06:03.192Z,4.72
2016-11-25T10:07:12.196Z,4.94
2016-11-25T10:08:21.132Z,5.03
2016-11-25T10:09:30.059Z,4.83
2016-11-25T10:10:39.293Z,4.97
2016-11-25T10:11:48.519Z,4.75
2016-11-25T10:12:57.855Z,4.97
2016-11-25T10:14:06.457Z,5.21
2016-11-25T10:15:15.399Z,5.18
2016-11-25T10:16:23.988Z,5.09
2016-11-25T10:17:32.942Z,4.78
2016-11-25T10:18:41.961Z,4.96
2016-11-25T10:19:50.562Z,5.27
2016-11-25T10:20:59.477Z,5.37
2016-11-25T10:22:08.073Z,5.22
2016-11-25T10:23:16.652Z,5.3
2016-11-25T10:24:25.612Z,5.3
2016-11-25T10:25:34.209Z,5.3
2016-11-25T10:26:42.811Z,5.41
2016-11-25T10:27:52.050Z,5.03
2016-11-25T10:29:00.670Z,5.4
2016-11-25T10:30:09.389Z,5.7
2016-11-25T10:31:18.306Z,5.37
2016-11-25T10:32:27.200Z,5.27
2016-11-25T10:33:35.791Z,5.43
2016-11-25T10:34:44.707Z,5.54
2016-11-25T10:35:53.972Z,5.47
2016-11-25T10:37:02.925Z,5.66
2016-11-25T10:38:11.517Z,5.82
2016-11-25T10:39:20.757Z,5.85
2016-11-25T10:40:29.655Z,5.7
2016-11-25T10:41:38.935Z,5.76
2016-11-25T10:42:47.526Z,5.85
2016-11-25T10:43:56.120Z,6.12
2016-11-25T10:45:04.714Z,5.79
2016-11-25T10:46:13.303Z,5.94
2016-11-25T10:47:22.272Z,5.73
2016-11-25T10:48:31.161Z,5.7
2016-11-25T10:49:40.075Z,5.67
2016-11-25T10:50:48.673Z,5.59
2016-11-25T10:51:57.605Z,5.76
2016-11-25T10:53:06.243Z,5.75
2016-11-25T10:54:15.139Z,5.66
2016-11-25T10:55:24.373Z,5.77
2016-11-25T10:56:32.954Z,5.93
2016-11-25T10:57:41.861Z,5.79
2016-11-25T10:58:50.747Z,5.77
2016-11-25T10:59:59.339Z,5.69
2016-11-25T11:01:08.260Z,5.61
2016-11-25T11:02:17.493Z,5.66
2016-11-25T11:03:26.407Z,5.57
2016-11-25T11:04:35.669Z,5.95
2016-11-25T11:05:44.576Z,5.4
2016-11-25T11:06:53.169Z,5.52
2016-11-25T11:08:01.764Z,5.55
2016-11-25T11:09:10.378Z,5.3
2016-11-25T11:10:19.058Z,5.55
2016-11-25T11:11:27.648Z,5.65
2016-11-25T11:12:36.565Z,5.55
2016-11-25T11:13:45.539Z,5.66
2016-11-25T11:14:54.445Z,5.76
2016-11-25T11:16:03.450Z,5.72
2016-11-25T11:17:12.392Z,5.66
2016-11-25T11:18:21.315Z,5.97
2016-11-25T11:19:30.235Z,5.88
2016-11-25T11:20:39.155Z,5.79
2016-11-25T11:21:48.769Z,5.73
2016-11-25T11:22:57.401Z,5.61
2016-11-25T11:24:06.319Z,5.73
2016-11-25T11:25:15.552Z,5.76
2016-11-25T11:26:24.129Z,5.62
2016-11-25T11:27:33.387Z,5.65
2016-11-25T11:28:41.969Z,5.76
2016-11-25T11:29:50.863Z,5.5
2016-11-25T11:31:00.101Z,5.72
2016-11-25T11:32:09.330Z,5.59
2016-11-25T11:33:17.959Z,5.57
2016-11-25T11:34:26.922Z,5.73
2016-11-25T11:35:35.891Z,6.28
2016-11-25T11:36:44.829Z,6.63
2016-11-25T11:37:54.377Z,6.63
2016-11-25T11:39:03.040Z,6.18
2016-11-25T11:40:11.658Z,6.15
2016-11-25T11:41:20.806Z,6.08
2016-11-25T11:42:30.066Z,5.9
2016-11-25T11:43:39.257Z,5.84
2016-11-25T11:44:48.599Z,5.91
2016-11-25T11:45:57.749Z,5.73
2016-11-25T11:47:06.766Z,5.94
2016-11-25T11:48:15.368Z,6.3
2016-11-25T11:49:23.985Z,6.25
2016-11-25T11:50:33.209Z,6.18
2016-11-25T11:51:42.350Z,5.93
2016-11-25T11:52:51.852Z,6.27
2016-11-25T11:54:01.106Z,6.52
2016-11-25T11:55:10.237Z,6.56
2016-11-25T11:56:19.437Z,6.32
2016-11-25T11:57:28.401Z,6.18
2016-11-25T11:58:37.643Z,5.93
2016-11-25T11:59:46.263Z,6.15
2016-11-25T12:00:55.699Z,6.18
2016-11-25T12:02:04.675Z,5.76
2016-11-25T12:03:14.465Z,6.09
2016-11-25T12:04:23.584Z,5.94
2016-11-25T12:05:32.162Z,6.25
2016-11-25T12:06:41.063Z,5.98
2016-11-25T12:07:49.761Z,5.73
2016-11-25T12:08:58.345Z,5.59
2016-11-25T12:10:06.936Z,5.76
2016-11-25T12:11:15.531Z,5.93
2016-11-25T12:12:24.449Z,6.12
2016-11-25T12:13:33.101Z,6.16
2016-11-25T12:14:42.334Z,6.06
2016-11-25T12:15:50.926Z,5.79
2016-11-25T12:16:59.844Z,5.76
2016-11-25T12:18:08.759Z,5.84
2016-11-25T12:19:17.760Z,5.77
2016-11-25T12:20:26.359Z,5.9
2016-11-25T12:21:34.953Z,6.4
2016-11-25T12:22:43.536Z,6.06
2016-11-25T12:23:52.118Z,5.88
2016-11-25T12:25:01.067Z,5.76
2016-11-25T12:26:10.306Z,5.79
2016-11-25T12:27:18.909Z,5.95
2016-11-25T12:28:27.510Z,5.73
2016-11-25T12:29:36.112Z,5.76
2016-11-25T12:30:44.798Z,5.73
2016-11-25T12:31:53.697Z,5.61
2016-11-25T12:33:02.923Z,5.55
2016-11-25T12:34:11.845Z,5.77
2016-11-25T12:35:20.790Z,6.12
2016-11-25T12:36:29.802Z,6.16
2016-11-25T12:37:38.717Z,6.15
2016-11-25T12:38:47.666Z,5.98
2016-11-25T12:39:56.572Z,6.09
2016-11-25T12:41:05.825Z,5.91
2016-11-25T12:42:15.091Z,5.91
2016-11-25T12:43:24.033Z,5.91
2016-11-25T12:44:33.258Z,6.02
2016-11-25T12:45:42.170Z,6.27
2016-11-25T12:46:50.757Z,5.95
2016-11-25T12:48:00.012Z,6.57
2016-11-25T12:49:08.593Z,6.19
2016-11-25T12:50:17.837Z,5.75
2016-11-25T12:51:26.426Z,5.77
2016-11-25T12:52:35.002Z,5.88
2016-11-25T12:53:44.024Z,5.95
2016-11-25T12:54:52.920Z,6.13
2016-11-25T12:56:01.506Z,6.06
2016-11-25T12:57:11.052Z,5.91
2016-11-25T12:58:19.648Z,6.16
2016-11-25T12:59:28.586Z,5.69
2016-11-25T13:00:37.488Z,5.52
2016-11-25T13:01:47.020Z,5.65
2016-11-25T13:02:56.255Z,5.69
2016-11-25T13:04:05.157Z,5.93
2016-11-25T13:05:13.788Z,5.95
2016-11-25T13:06:22.700Z,5.79
2016-11-25T13:07:31.936Z,6.06
2016-11-25T13:08:40.859Z,6.08
2016-11-25T13:09:49.756Z,6.08
2016-11-25T13:10:58.950Z,6.12
2016-11-25T13:12:07.878Z,6.11
2016-11-25T13:13:16.485Z,6.3
2016-11-25T13:14:25.379Z,6.16
2016-11-25T13:15:33.953Z,6.12
2016-11-25T13:16:43.263Z,5.77
2016-11-25T13:17:51.858Z,5.52
2016-11-25T13:19:00.445Z,5.7
2016-11-25T13:20:09.366Z,5.88
2016-11-25T13:21:17.978Z,6.19
2016-11-25T13:22:27.262Z,5.9
2016-11-25T13:23:35.856Z,6.12
2016-11-25T13:24:44.433Z,6.16
2016-11-25T13:25:53.331Z,6.28
2016-11-25T13:27:01.913Z,6.5
2016-11-25T13:28:10.549Z,6.82
2016-11-25T13:29:19.132Z,6.6
2016-11-25T13:30:27.715Z,6.55
2016-11-25T13:31:36.308Z,6.16
2016-11-25T13:32:45.230Z,6.37
2016-11-25T13:33:54.193Z,6.47
2016-11-25T13:35:03.093Z,6.25
2016-11-25T13:36:11.666Z,6.5
2016-11-25T13:37:20.574Z,6.45
2016-11-25T13:38:29.479Z,6.52
2016-11-25T13:39:38.417Z,6.46
2016-11-25T13:40:47.312Z,6.21
2016-11-25T13:41:55.919Z,6.75
2016-11-25T13:43:04.824Z,6.89
2016-11-25T13:44:13.730Z,7
2016-11-25T13:45:22.429Z,6.02
2016-11-25T13:46:31.019Z,6.34
2016-11-25T13:47:39.940Z,6.42
2016-11-25T13:48:48.512Z,6
2016-11-25T13:49:57.109Z,5.65
2016-11-25T13:51:05.799Z,5.32
2016-11-25T13:52:14.707Z,5.29
2016-11-25T13:53:23.292Z,5.33
2016-11-25T13:54:32.507Z,5.44
2016-11-25T13:55:41.083Z,5.75
2016-11-25T13:56:50.039Z,5.67
2016-11-25T13:57:58.609Z,5.72
2016-11-25T13:59:07.853Z,5.61
2016-11-25T14:00:16.750Z,5.88
2016-11-25T14:01:25.979Z,5.91
2016-11-25T14:02:34.957Z,5.84
2016-11-25T14:03:43.871Z,5.94
2016-11-25T14:04:52.457Z,5.94
2016-11-25T14:06:01.704Z,5.73
2016-11-25T14:07:10.289Z,5.87
2016-11-25T14:08:18.919Z,5.94
2016-11-25T14:09:27.512Z,5.55
2016-11-25T14:10:36.102Z,5.34
2016-11-25T14:11:44.698Z,5.9
2016-11-25T14:12:53.285Z,5.7
2016-11-25T14:14:01.923Z,5.79
2016-11-25T14:15:10.826Z,5.77
2016-11-25T14:16:19.409Z,5.76
2016-11-25T14:17:27.997Z,5.91
2016-11-25T14:18:36.581Z,5.33
2016-11-25T14:19:45.796Z,5.32
2016-11-25T14:20:55.043Z,5.85
2016-11-25T14:22:03.620Z,5.79
2016-11-25T14:23:12.853Z,5.9
2016-11-25T14:24:22.084Z,6.21
2016-11-25T14:25:30.739Z,5.88
2016-11-25T14:26:39.333Z,5.36
2016-11-25T14:27:48.562Z,5.03
2016-11-25T14:28:57.478Z,5.15
2016-11-25T14:30:06.398Z,4.85
2016-11-25T14:31:15.377Z,4.6
2016-11-25T14:32:23.951Z,4.89
2016-11-25T14:33:32.871Z,4.96
2016-11-25T14:34:41.772Z,5.21
2016-11-25T14:35:50.664Z,5.09
2016-11-25T14:36:59.610Z,4.91
2016-11-25T14:38:08.522Z,5.07
2016-11-25T14:39:17.110Z,5.32
2016-11-25T14:40:25.697Z,5.44
2016-11-25T14:41:34.614Z,5.69
2016-11-25T14:42:43.589Z,5.7
2016-11-25T14:43:52.162Z,5.3
2016-11-25T14:45:00.736Z,4.96
2016-11-25T14:46:09.654Z,5.4
2016-11-25T14:47:18.864Z,5.44
2016-11-25T14:48:28.128Z,5.55
2016-11-25T14:49:36.723Z,5.54
2016-11-25T14:50:45.313Z,5.69
2016-11-25T14:51:54.232Z,5.36
2016-11-25T14:53:03.158Z,5.19
2016-11-25T14:54:12.351Z,5.25
2016-11-25T14:55:21.579Z,5.14
2016-11-25T14:56:30.516Z,4.83
2016-11-25T14:57:39.104Z,4.86
2016-11-25T14:58:47.995Z,5.19
2016-11-25T14:59:56.958Z,5.18
2016-11-25T15:01:05.862Z,5.01
2016-11-25T15:02:14.769Z,5.33
2016-11-25T15:03:23.357Z,5.12
2016-11-25T15:04:32.586Z,5.01
2016-11-25T15:05:41.844Z,4.96
2016-11-25T15:06:50.751Z,5.03
2016-11-25T15:07:59.661Z,5.34
2016-11-25T15:09:08.236Z,5.07
2016-11-25T15:10:17.458Z,4.77
2016-11-25T15:11:26.722Z,4.86
2016-11-25T15:12:35.624Z,5.01
2016-11-25T15:13:44.211Z,5.19
2016-11-25T15:14:53.440Z,4.97
2016-11-25T15:16:02.674Z,4.74
2016-11-25T15:17:11.922Z,5.03
2016-11-25T15:18:20.503Z,5.29
2016-11-25T15:19:29.388Z,5.21
2016-11-25T15:20:38.314Z,4.93